createdAt,value
2023-01-19T00:01:56.482Z,99088.00
2023-01-19T00:04:59.495Z,99101.69
2023-01-19T00:08:14.790Z,99093.88
2023-01-19T00:11:19.728Z,99095.53
2023-01-19T00:14:21.721Z,99084.91
2023-01-19T00:17:23.724Z,99090.22
2023-01-19T00:20:26.014Z,99099.75
2023-01-19T00:23:27.895Z,99108.28
2023-01-19T00:26:29.796Z,99110.09
2023-01-19T00:29:34.374Z,99112.31
2023-01-19T00:32:36.256Z,99121.28
2023-01-19T00:35:38.261Z,99125.63
2023-01-19T00:38:40.214Z,99126.59
2023-01-19T00:42:01.118Z,99120.88
2023-01-19T00:45:02.978Z,99125.91
2023-01-19T00:48:05.051Z,99132.06
2023-01-19T00:51:06.918Z,99132.34
2023-01-19T00:54:10.468Z,99128.97
2023-01-19T00:57:12.786Z,99143.13
2023-01-19T01:00:17.403Z,99141.72
2023-01-19T01:03:19.485Z,99142.00
2023-01-19T01:06:21.557Z,99132.91
2023-01-19T01:09:24.363Z,99132.19
2023-01-19T01:12:26.425Z,99127.72
2023-01-19T01:15:29.634Z,99123.81
2023-01-19T01:18:31.673Z,99123.09
2023-01-19T01:21:34.753Z,99119.75
2023-01-19T01:24:36.768Z,99117.94
2023-01-19T01:27:38.913Z,99120.16
2023-01-19T01:30:41.268Z,99118.63
2023-01-19T01:33:43.161Z,99117.78
2023-01-19T01:36:45.080Z,99122.13
2023-01-19T01:39:46.987Z,99121.72
2023-01-19T01:42:48.956Z,99121.00
2023-01-19T01:45:52.067Z,99119.59
2023-01-19T01:49:10.439Z,99115.84
2023-01-19T01:52:15.147Z,99123.25
2023-01-19T01:55:18.165Z,99130.53
2023-01-19T01:58:19.947Z,99128.00
2023-01-19T02:01:41.171Z,99135.56
2023-01-19T02:04:50.633Z,99146.75
2023-01-19T02:08:33.777Z,99146.88
2023-01-19T02:11:54.939Z,99153.59
2023-01-19T02:14:56.890Z,99156.56
2023-01-19T02:17:59.000Z,99162.41
2023-01-19T02:21:15.805Z,99163.81
2023-01-19T02:24:18.351Z,99148.00
2023-01-19T02:27:20.869Z,99144.94
2023-01-19T02:30:23.155Z,99147.44
2023-01-19T02:33:25.193Z,99148.44
2023-01-19T02:36:41.245Z,99154.72
2023-01-19T02:39:51.834Z,99142.41
2023-01-19T02:42:59.009Z,99151.63
2023-01-19T02:46:01.228Z,99147.16
2023-01-19T02:49:03.200Z,99149.13
2023-01-19T02:52:05.987Z,99149.38
2023-01-19T02:55:18.361Z,99146.03
2023-01-19T02:58:54.649Z,99142.69
2023-01-19T03:02:05.630Z,99154.28
2023-01-19T03:05:38.655Z,99147.28
2023-01-19T03:09:02.000Z,99157.22
2023-01-19T03:12:15.084Z,99152.88
2023-01-19T03:15:27.554Z,99155.09
2023-01-19T03:18:33.941Z,99160.97
2023-01-19T03:21:37.547Z,99160.16
2023-01-19T03:24:43.481Z,99168.25
2023-01-19T03:27:47.264Z,99175.50
2023-01-19T03:30:57.994Z,99170.06
2023-01-19T03:34:08.345Z,99186.28
2023-01-19T03:37:11.585Z,99181.81
2023-01-19T03:40:13.671Z,99182.78
2023-01-19T03:43:18.296Z,99190.63
2023-01-19T03:46:21.061Z,99186.00
2023-01-19T03:49:23.146Z,99186.72
2023-01-19T03:52:33.682Z,99199.28
2023-01-19T03:55:37.149Z,99188.38
2023-01-19T03:58:38.983Z,99192.88
2023-01-19T04:01:41.490Z,99203.50
2023-01-19T04:04:43.485Z,99199.41
2023-01-19T04:07:45.515Z,99193.00
2023-01-19T04:10:47.337Z,99205.16
2023-01-19T04:13:49.892Z,99201.94
2023-01-19T04:16:52.397Z,99195.94
2023-01-19T04:19:54.329Z,99191.47
2023-01-19T04:23:00.138Z,99191.22
2023-01-19T04:26:05.116Z,99198.91
2023-01-19T04:29:06.986Z,99196.25
2023-01-19T04:32:09.295Z,99206.88
2023-01-19T04:35:11.273Z,99193.59
2023-01-19T04:38:13.483Z,99193.59
2023-01-19T04:41:15.427Z,99196.97
2023-01-19T04:44:18.027Z,99198.78
2023-01-19T04:47:20.340Z,99187.72
2023-01-19T04:50:22.292Z,99207.31
2023-01-19T04:53:24.196Z,99204.38
2023-01-19T04:56:26.085Z,99206.31
2023-01-19T04:59:28.000Z,99217.25
2023-01-19T05:02:30.096Z,99212.06
2023-01-19T05:05:33.240Z,99220.59
2023-01-19T05:08:35.301Z,99220.75
2023-01-19T05:11:37.235Z,99219.06
2023-01-19T05:14:39.162Z,99217.38
2023-01-19T05:17:41.251Z,99228.00
2023-01-19T05:20:43.231Z,99215.56
2023-01-19T05:23:45.287Z,99228.59
2023-01-19T05:26:47.250Z,99227.59
2023-01-19T05:29:49.087Z,99232.06
2023-01-19T05:32:51.091Z,99236.16
2023-01-19T05:35:53.537Z,99249.56
2023-01-19T05:38:55.722Z,99259.66
2023-01-19T05:41:57.599Z,99253.63
2023-01-19T05:44:59.700Z,99265.69
2023-01-19T05:48:02.267Z,99267.06
2023-01-19T05:51:05.242Z,99255.03
2023-01-19T05:54:07.916Z,99258.97
2023-01-19T05:57:10.843Z,99261.22
2023-01-19T06:00:12.962Z,99271.59
2023-01-19T06:03:15.087Z,99270.19
2023-01-19T06:06:17.260Z,99266.41
2023-01-19T06:09:19.220Z,99263.63
2023-01-19T06:12:21.172Z,99255.50
2023-01-19T06:15:23.104Z,99260.97
2023-01-19T06:18:25.085Z,99260.41
2023-01-19T06:21:26.962Z,99262.94
2023-01-19T06:24:29.748Z,99272.44
2023-01-19T06:27:31.692Z,99263.22
2023-01-19T06:30:33.593Z,99267.13
2023-01-19T06:33:35.552Z,99275.84
2023-01-19T06:36:37.502Z,99267.03
2023-01-19T06:39:41.171Z,99265.22
2023-01-19T06:42:43.088Z,99267.47
2023-01-19T06:45:46.107Z,99257.66
2023-01-19T06:48:48.235Z,99267.59
2023-01-19T06:51:50.503Z,99262.13
2023-01-19T06:54:52.848Z,99268.84
2023-01-19T06:58:01.395Z,99259.47
2023-01-19T07:01:05.627Z,99263.38
2023-01-19T07:04:07.746Z,99274.31
2023-01-19T07:07:09.653Z,99278.94
2023-01-19T07:10:15.707Z,99283.81
2023-01-19T07:13:17.762Z,99280.44
2023-01-19T07:16:20.073Z,99290.25
2023-01-19T07:19:21.919Z,99294.44
2023-01-19T07:22:23.949Z,99294.00
2023-01-19T07:25:27.066Z,99302.16
2023-01-19T07:28:30.221Z,99302.28
2023-01-19T07:31:32.149Z,99307.88
2023-01-19T07:34:34.698Z,99309.31
2023-01-19T07:37:36.649Z,99326.97
2023-01-19T07:40:38.461Z,99325.00
2023-01-19T07:43:40.375Z,99327.94
2023-01-19T07:46:43.418Z,99333.13
2023-01-19T07:49:45.313Z,99331.44
2023-01-19T07:52:48.246Z,99326.25
2023-01-19T07:55:54.473Z,99333.56
2023-01-19T07:58:56.750Z,99327.53
2023-01-19T08:01:59.641Z,99335.22
2023-01-19T08:05:02.137Z,99341.25
2023-01-19T08:08:05.632Z,99335.50
2023-01-19T08:11:08.569Z,99337.72
2023-01-19T08:14:10.854Z,99337.31
2023-01-19T08:17:51.092Z,99338.25
2023-01-19T08:20:53.031Z,99341.34
2023-01-19T08:23:56.200Z,99325.91
2023-01-19T08:27:00.356Z,99330.25
2023-01-19T08:30:02.298Z,99336.25
2023-01-19T08:33:04.661Z,99334.28
2023-01-19T08:36:06.843Z,99334.69
2023-01-19T08:39:12.260Z,99334.41
2023-01-19T08:42:14.132Z,99330.47
2023-01-19T08:45:16.210Z,99331.16
2023-01-19T08:48:22.167Z,99328.63
2023-01-19T08:51:24.272Z,99323.00
2023-01-19T08:54:26.305Z,99323.28
2023-01-19T08:57:28.451Z,99323.81
2023-01-19T09:00:31.889Z,99322.78
2023-01-19T09:03:34.019Z,99315.63
2023-01-19T09:06:36.007Z,99314.34
2023-01-19T09:09:39.805Z,99319.53
2023-01-19T09:12:43.645Z,99335.22
2023-01-19T09:15:46.445Z,99333.16
2023-01-19T09:18:48.432Z,99326.25
2023-01-19T09:21:51.040Z,99330.75
2023-01-19T09:24:52.959Z,99317.69
2023-01-19T09:27:56.220Z,99322.84
2023-01-19T09:30:59.087Z,99321.31
2023-01-19T09:34:00.916Z,99324.13
2023-01-19T09:37:03.873Z,99321.84
2023-01-19T09:40:06.382Z,99325.22
2023-01-19T09:43:31.926Z,99316.38
2023-01-19T09:46:42.922Z,99316.66
2023-01-19T09:49:55.157Z,99323.78
2023-01-19T09:53:04.482Z,99321.94
2023-01-19T09:56:13.846Z,99322.19
2023-01-19T09:59:25.293Z,99321.88
2023-01-19T10:02:36.777Z,99313.28
2023-01-19T10:06:06.348Z,99321.53
2023-01-19T10:09:29.509Z,99314.97
2023-01-19T10:12:54.748Z,99323.50
2023-01-19T10:16:02.764Z,99316.03
2023-01-19T10:29:53.380Z,99311.22
2023-01-19T10:32:55.562Z,99319.78
2023-01-19T10:35:57.563Z,99304.44
2023-01-19T10:38:59.651Z,99314.91
2023-01-19T10:42:05.998Z,99306.44
2023-01-19T10:45:18.899Z,99303.75
2023-01-19T10:48:20.951Z,99298.66
2023-01-19T10:51:23.447Z,99298.66
2023-01-19T10:54:27.902Z,99301.00
2023-01-19T10:57:37.983Z,99300.28
2023-01-19T11:00:44.391Z,99294.78
2023-01-19T11:03:46.823Z,99299.13
2023-01-19T11:06:49.098Z,99305.00
2023-01-19T11:10:23.137Z,99300.34
2023-01-19T11:13:25.307Z,99291.72
2023-01-19T11:16:35.161Z,99290.56
2023-01-19T11:19:37.294Z,99297.75
2023-01-19T11:22:39.340Z,99296.28
2023-01-19T11:25:45.461Z,99301.31
2023-01-19T11:28:49.221Z,99295.28
2023-01-19T11:31:53.312Z,99296.50
2023-01-19T11:34:55.331Z,99289.47
2023-01-19T11:38:27.560Z,99303.50
2023-01-19T11:41:33.410Z,99303.34
2023-01-19T11:45:01.858Z,99316.19
2023-01-19T11:48:05.948Z,99294.97
2023-01-19T11:51:14.645Z,99301.00
2023-01-19T11:54:25.706Z,99302.31
2023-01-19T11:57:27.735Z,99300.63
2023-01-19T12:00:36.185Z,99294.75
2023-01-19T12:03:42.433Z,99290.94
2023-01-19T12:06:49.460Z,99292.75
2023-01-19T12:09:56.528Z,99297.44
2023-01-19T12:12:59.411Z,99293.38
2023-01-19T12:16:05.580Z,99293.53
2023-01-19T12:19:16.201Z,99300.56
2023-01-19T12:22:20.301Z,99298.25
2023-01-19T12:25:29.998Z,99295.59
2023-01-19T12:28:37.114Z,99304.44
2023-01-19T12:31:40.845Z,99315.50
2023-01-19T12:34:47.922Z,99315.66
2023-01-19T12:37:49.704Z,99308.66
2023-01-19T12:41:23.052Z,99311.31
2023-01-19T12:44:27.795Z,99323.31
2023-01-19T12:47:30.001Z,99311.78
2023-01-19T12:50:40.055Z,99321.25
2023-01-19T12:53:51.965Z,99323.94
2023-01-19T12:57:28.418Z,99315.38
2023-01-19T13:00:36.291Z,99311.34
2023-01-19T13:04:02.072Z,99313.47
2023-01-19T13:07:10.388Z,99307.97
2023-01-19T13:10:49.928Z,99306.16
2023-01-19T13:14:00.832Z,99305.31
2023-01-19T13:17:05.569Z,99310.50
2023-01-19T13:20:22.694Z,99302.50
2023-01-19T13:23:27.567Z,99305.84
2023-01-19T13:26:33.465Z,99302.09
2023-01-19T13:29:43.062Z,99304.09
2023-01-19T13:32:45.305Z,99308.56
2023-01-19T13:35:56.559Z,99301.84
2023-01-19T13:39:01.639Z,99307.13
2023-01-19T13:42:16.434Z,99312.47
2023-01-19T13:45:24.235Z,99322.75
2023-01-19T13:48:26.250Z,99312.53
2023-01-19T13:51:28.241Z,99316.19
2023-01-19T13:54:30.239Z,99314.13
2023-01-19T13:57:33.299Z,99322.69
2023-01-19T14:00:35.295Z,99322.69
2023-01-19T14:03:46.455Z,99322.16
2023-01-19T14:06:49.809Z,99325.13
2023-01-19T14:10:12.299Z,99327.47
2023-01-19T14:13:29.806Z,99324.13
2023-01-19T14:16:31.988Z,99324.28
2023-01-19T14:19:51.091Z,99324.28
2023-01-19T14:22:53.286Z,99328.78
2023-01-19T14:25:55.313Z,99347.75
2023-01-19T14:28:57.326Z,99341.72
2023-01-19T14:32:09.979Z,99344.00
2023-01-19T14:35:23.251Z,99340.56
2023-01-19T14:38:25.733Z,99353.22
2023-01-19T14:41:40.777Z,99343.53
2023-01-19T14:44:48.213Z,99341.16
2023-01-19T14:48:02.859Z,99344.41
2023-01-19T14:51:08.004Z,99350.75
2023-01-19T14:54:21.647Z,99346.09
2023-01-19T14:57:23.880Z,99350.75
2023-01-19T15:00:27.290Z,99350.59
2023-01-19T15:03:44.211Z,99352.28
2023-01-19T15:06:49.341Z,99356.38
2023-01-19T15:09:53.653Z,99361.13
2023-01-19T15:12:56.652Z,99359.19
2023-01-19T15:15:59.072Z,99347.69
2023-01-19T15:19:01.182Z,99348.38
2023-01-19T15:22:13.427Z,99355.97
2023-01-19T15:25:31.694Z,99353.41
2023-01-19T15:28:34.465Z,99365.06
2023-01-19T15:31:39.575Z,99362.56
2023-01-19T15:34:42.304Z,99365.06
2023-01-19T15:37:45.053Z,99361.41
2023-01-19T15:40:51.491Z,99364.47
2023-01-19T15:43:53.972Z,99368.00
2023-01-19T15:46:57.516Z,99366.59
2023-01-19T15:49:59.534Z,99377.97
2023-01-19T15:53:01.614Z,99358.06
2023-01-19T15:56:03.840Z,99368.59
2023-01-19T15:59:06.784Z,99362.00
2023-01-19T16:02:09.773Z,99369.47
2023-01-19T16:05:13.219Z,99370.31
2023-01-19T16:08:17.796Z,99369.50
2023-01-19T16:11:20.232Z,99370.19
2023-01-19T16:14:22.441Z,99369.50
2023-01-19T16:17:25.330Z,99365.91
2023-01-19T16:20:27.130Z,99372.38
2023-01-19T16:23:29.102Z,99373.50
2023-01-19T16:26:34.429Z,99364.09
2023-01-19T16:29:36.521Z,99387.69
2023-01-19T16:32:39.090Z,99384.75
2023-01-19T16:35:41.135Z,99380.84
2023-01-19T16:38:43.114Z,99373.28
2023-01-19T16:41:46.786Z,99384.25
2023-01-19T16:44:48.772Z,99393.50
2023-01-19T16:47:52.246Z,99403.75
2023-01-19T16:51:05.904Z,99401.66
2023-01-19T16:54:16.411Z,99399.56
2023-01-19T16:57:20.640Z,99396.06
2023-01-19T17:00:26.830Z,99404.19
2023-01-19T17:03:28.742Z,99400.81
2023-01-19T17:06:32.133Z,99392.84
2023-01-19T17:09:35.237Z,99390.03
2023-01-19T17:12:38.613Z,99394.94
2023-01-19T17:15:40.736Z,99392.00
2023-01-19T17:18:42.782Z,99391.31
2023-01-19T17:35:11.914Z,99401.25
2023-01-19T17:38:17.137Z,99394.38
2023-01-19T17:41:24.605Z,99397.19
2023-01-19T17:44:26.549Z,99400.13
2023-01-19T17:47:29.408Z,99399.69
2023-01-19T17:50:32.232Z,99407.00
2023-01-19T17:53:36.041Z,99398.59
2023-01-19T17:56:38.909Z,99407.41
2023-01-19T17:59:43.786Z,99398.72
2023-01-19T18:02:49.253Z,99396.06
2023-01-19T18:05:58.351Z,99400.00
2023-01-19T18:09:02.705Z,99397.47
2023-01-19T18:12:04.937Z,99408.25
2023-01-19T18:15:08.575Z,99402.22
2023-01-19T18:18:10.477Z,99399.16
2023-01-19T18:21:14.885Z,99413.59
2023-01-19T18:24:17.028Z,99412.03
2023-01-19T18:27:20.636Z,99399.44
2023-01-19T18:30:22.976Z,99413.31
2023-01-19T18:33:25.792Z,99419.34
2023-01-19T18:36:28.785Z,99410.09
2023-01-19T18:39:31.197Z,99415.28
2023-01-19T18:42:34.010Z,99415.97
2023-01-19T18:45:37.197Z,99408.97
2023-01-19T18:48:39.781Z,99423.41
2023-01-19T18:51:42.092Z,99423.41
2023-01-19T18:54:44.037Z,99432.25
2023-01-19T18:57:46.009Z,99426.63
2023-01-19T19:00:49.247Z,99426.63
2023-01-19T19:03:52.877Z,99426.91
2023-01-19T19:06:54.790Z,99431.69
2023-01-19T19:09:56.685Z,99422.16
2023-01-19T19:13:01.353Z,99451.44
2023-01-19T19:16:07.980Z,99437.00
2023-01-19T19:19:11.974Z,99443.44
2023-01-19T19:22:14.183Z,99441.47
2023-01-19T19:25:16.273Z,99445.81
2023-01-19T19:28:18.568Z,99440.66
2023-01-19T19:31:22.572Z,99450.88
2023-01-19T19:34:25.052Z,99455.22
2023-01-19T19:37:26.974Z,99459.13
2023-01-19T19:40:29.312Z,99453.81
2023-01-19T19:43:37.935Z,99456.59
2023-01-19T19:46:41.446Z,99460.38
2023-01-19T19:49:43.479Z,99463.31
2023-01-19T19:52:45.402Z,99471.59
2023-01-19T19:56:01.734Z,99472.00
2023-01-19T19:59:03.712Z,99466.09
2023-01-19T20:02:05.732Z,99480.41
2023-01-19T20:05:08.086Z,99469.31
2023-01-19T20:08:10.062Z,99478.53
2023-01-19T20:11:14.716Z,99475.63
2023-01-19T20:14:16.655Z,99486.53
2023-01-19T20:17:19.203Z,99483.44
2023-01-19T20:20:21.127Z,99474.75
2023-01-19T20:23:22.998Z,99480.59
2023-01-19T20:26:29.360Z,99483.13
2023-01-19T20:29:31.355Z,99485.22
2023-01-19T20:32:33.741Z,99485.75
2023-01-19T20:35:35.704Z,99492.75
2023-01-19T20:38:38.654Z,99491.44
2023-01-19T20:41:43.824Z,99507.31
2023-01-19T20:44:45.791Z,99496.91
2023-01-19T20:47:47.641Z,99494.50
2023-01-19T20:50:49.866Z,99502.50
2023-01-19T20:53:51.802Z,99499.00
2023-01-19T20:56:54.124Z,99513.41
2023-01-19T20:59:56.097Z,99509.06
2023-01-19T21:02:58.348Z,99497.84
2023-01-19T21:06:00.276Z,99506.78
2023-01-19T21:09:02.547Z,99512.31
2023-01-19T21:12:04.586Z,99508.44
2023-01-19T21:15:07.108Z,99505.19
2023-01-19T21:18:08.944Z,99507.25
2023-01-19T21:21:24.583Z,99502.91
2023-01-19T21:24:31.123Z,99505.06
2023-01-19T21:27:33.227Z,99515.94
2023-01-19T21:30:36.468Z,99499.56
2023-01-19T21:33:39.874Z,99512.41
2023-01-19T21:36:41.885Z,99504.28
2023-01-19T21:39:43.838Z,99511.03
2023-01-19T21:42:45.764Z,99502.09
2023-01-19T21:45:48.735Z,99502.34
2023-01-19T21:48:50.577Z,99506.38
2023-01-19T21:51:52.691Z,99511.28
2023-01-19T21:54:54.880Z,99501.31
2023-01-19T21:57:57.038Z,99501.56
2023-01-19T22:01:00.782Z,99501.31
2023-01-19T22:04:02.844Z,99500.59
2023-01-19T22:07:05.404Z,99497.50
2023-01-19T22:10:09.305Z,99486.84
2023-01-19T22:13:11.239Z,99488.53
2023-01-19T22:16:18.860Z,99493.53
2023-01-19T22:19:20.896Z,99495.34
2023-01-19T22:22:22.731Z,99503.59
2023-01-19T22:25:27.879Z,99497.56
2023-01-19T22:28:29.970Z,99493.94
2023-01-19T22:31:32.576Z,99508.19
2023-01-19T22:34:35.037Z,99504.44
2023-01-19T22:37:37.637Z,99497.81
2023-01-19T22:40:39.583Z,99497.41
2023-01-19T22:43:41.954Z,99505.06
2023-01-19T22:46:44.569Z,99502.00
2023-01-19T22:49:46.460Z,99523.81
2023-01-19T22:52:48.368Z,99502.41
2023-01-19T22:55:50.335Z,99510.94
2023-01-19T22:58:52.868Z,99512.28
2023-01-19T23:01:54.894Z,99500.31
2023-01-19T23:04:56.872Z,99502.97
2023-01-19T23:07:58.799Z,99499.13
2023-01-19T23:11:12.384Z,99501.41
2023-01-19T23:14:17.756Z,99503.69
2023-01-19T23:17:19.727Z,99495.97
2023-01-19T23:20:21.628Z,99503.47
2023-01-19T23:23:32.342Z,99507.81
2023-01-19T23:26:38.332Z,99512.22
2023-01-19T23:29:40.415Z,99518.84
2023-01-19T23:32:47.094Z,99527.06
2023-01-19T23:35:49.132Z,99525.50
2023-01-19T23:38:54.039Z,99522.13
2023-01-19T23:41:55.938Z,99519.47
2023-01-19T23:44:57.817Z,99521.41
2023-01-19T23:47:59.757Z,99518.75
2023-01-19T23:51:13.249Z,99523.09
2023-01-19T23:54:15.322Z,99526.00
2023-01-19T23:57:17.207Z,99525.31
